Time,TemperatureF,DewpointF,PressureIn,WindDirection,WindDirectionDegrees,WindSpeedMPH,WindSpeedGustMPH,Humidity,HourlyPrecipIn,Conditions,Clouds,dailyrainin,SolarRadiationWatts/m^2,SoftwareType,DateUTC
2013-02-10 00:01:00,34.0,26.0,29.44,NW,316,2.0,3.0,72,0.00,,,0.00,0.000000,,2013-02-10 05:01:00,
2013-02-10 00:10:00,32.0,25.0,29.46,WNW,284,1.0,4.0,74,0.00,,,0.00,0.000000,,2013-02-10 05:10:00,
2013-02-10 00:32:00,32.0,25.0,29.46,WNW,284,1.0,4.0,74,0.00,,,0.00,0.000000,,2013-02-10 05:32:00,
2013-02-10 00:42:00,32.0,25.0,29.46,WNW,284,1.0,4.0,74,0.00,,,0.00,0.000000,,2013-02-10 05:42:00,
2013-02-10 00:52:00,32.0,25.0,29.46,WNW,284,1.0,4.0,74,0.00,,,0.00,0.000000,,2013-02-10 05:52:00,
2013-02-10 01:02:00,32.0,25.0,29.46,WNW,284,1.0,4.0,74,0.00,,,0.00,0.000000,,2013-02-10 06:02:00,
2013-02-10 01:10:00,32.0,26.0,29.47,NW,319,2.0,4.0,78,0.00,,,0.00,0.000000,,2013-02-10 06:10:00,
2013-02-10 01:32:00,32.0,26.0,29.47,NW,319,2.0,4.0,78,0.00,,,0.00,0.000000,,2013-02-10 06:32:00,
2013-02-10 01:42:00,32.0,26.0,29.47,NW,319,2.0,4.0,78,0.00,,,0.00,0.000000,,2013-02-10 06:42:00,
2013-02-10 01:52:00,32.0,26.0,29.47,NW,319,2.0,4.0,78,0.00,,,0.00,0.000000,,2013-02-10 06:52:00,
2013-02-10 02:01:00,32.0,26.0,29.47,NW,319,2.0,4.0,78,0.00,,,0.00,0.000000,,2013-02-10 07:01:00,
2013-02-10 02:10:00,34.0,28.0,29.47,NW,323,1.0,4.0,78,0.00,,,-99.99,0.000000,,2013-02-10 07:10:00,
2013-02-10 02:42:00,34.0,28.0,29.47,NW,323,1.0,4.0,78,0.00,,,-99.99,0.000000,,2013-02-10 07:42:00,
2013-02-10 02:52:00,34.0,28.0,29.47,NW,323,1.0,4.0,78,0.00,,,-99.99,0.000000,,2013-02-10 07:52:00,
2013-02-10 03:01:00,34.0,28.0,29.47,NW,323,1.0,4.0,78,0.00,,,-99.99,0.000000,,2013-02-10 08:01:00,
2013-02-10 03:10:00,32.0,25.0,29.47,North,5,1.0,3.0,76,0.00,,,0.00,0.000000,,2013-02-10 08:10:00,
2013-02-10 03:43:00,32.0,25.0,29.47,North,5,1.0,3.0,76,0.00,,,0.00,0.000000,,2013-02-10 08:43:00,
2013-02-10 03:52:00,32.0,25.0,29.47,North,5,1.0,3.0,76,0.00,,,0.00,0.000000,,2013-02-10 08:52:00,
2013-02-10 04:02:00,32.0,25.0,29.47,North,5,1.0,3.0,76,0.00,,,0.00,0.000000,,2013-02-10 09:02:00,
2013-02-10 04:10:00,34.0,29.0,29.47,NW,317,1.0,3.0,82,0.00,,,0.00,0.000000,,2013-02-10 09:10:00,
2013-02-10 04:32:00,34.0,29.0,29.47,NW,317,1.0,3.0,82,0.00,,,0.00,0.000000,,2013-02-10 09:32:00,
2013-02-10 04:42:00,34.0,29.0,29.47,NW,317,1.0,3.0,82,0.00,,,0.00,0.000000,,2013-02-10 09:42:00,
2013-02-10 04:52:00,34.0,29.0,29.47,NW,317,1.0,3.0,82,0.00,,,0.00,0.000000,,2013-02-10 09:52:00,
2013-02-10 05:01:00,34.0,29.0,29.47,NW,317,1.0,3.0,82,0.00,,,0.00,0.000000,,2013-02-10 10:01:00,
2013-02-10 05:10:00,34.0,29.0,29.47,NNE,29,1.0,4.0,83,0.00,,,0.00,0.000000,,2013-02-10 10:10:00,
2013-02-10 05:42:00,34.0,29.0,29.47,NNE,29,1.0,4.0,83,0.00,,,0.00,0.000000,,2013-02-10 10:42:00,
2013-02-10 05:52:00,34.0,29.0,29.47,NNE,29,1.0,4.0,83,0.00,,,0.00,0.000000,,2013-02-10 10:52:00,
2013-02-10 06:01:00,34.0,29.0,29.47,NNE,29,1.0,4.0,83,0.00,,,0.00,0.000000,,2013-02-10 11:01:00,
2013-02-10 06:10:00,32.0,28.0,29.50,WNW,284,1.0,4.0,84,0.00,,,0.00,0.000000,,2013-02-10 11:10:00,
2013-02-10 06:32:00,32.0,28.0,29.50,WNW,284,1.0,4.0,84,0.00,,,0.00,0.000000,,2013-02-10 11:32:00,
2013-02-10 06:42:00,32.0,28.0,29.50,WNW,284,1.0,4.0,84,0.00,,,0.00,0.000000,,2013-02-10 11:42:00,
2013-02-10 06:52:00,32.0,28.0,29.50,WNW,284,1.0,4.0,84,0.00,,,0.00,0.000000,,2013-02-10 11:52:00,
2013-02-10 07:02:00,32.0,28.0,29.50,WNW,284,1.0,4.0,84,0.00,,,0.00,0.000000,,2013-02-10 12:02:00,
2013-02-10 10:10:00,48.0,21.0,29.54,East,93,2.0,8.0,34,-99.99,,,0.00,201.000000,,2013-02-10 15:10:00,
2013-02-10 10:32:00,48.0,21.0,29.54,East,93,2.0,8.0,34,-99.99,,,0.00,201.000000,,2013-02-10 15:32:00,
2013-02-10 10:42:00,48.0,21.0,29.54,East,93,2.0,8.0,34,-99.99,,,0.00,201.000000,,2013-02-10 15:42:00,
2013-02-10 10:52:00,48.0,21.0,29.54,East,93,2.0,8.0,34,-99.99,,,0.00,201.000000,,2013-02-10 15:52:00,
2013-02-10 11:02:00,48.0,21.0,29.54,East,93,2.0,8.0,34,-99.99,,,0.00,201.000000,,2013-02-10 16:02:00,
2013-02-10 11:10:00,52.0,22.0,29.53,SSE,167,3.0,9.0,31,0.00,,,0.00,322.000000,,2013-02-10 16:10:00,
2013-02-10 11:32:00,52.0,22.0,29.53,SSE,167,3.0,9.0,31,0.00,,,0.00,322.000000,,2013-02-10 16:32:00,
2013-02-10 11:42:00,52.0,22.0,29.53,SSE,167,3.0,9.0,31,0.00,,,0.00,322.000000,,2013-02-10 16:42:00,
2013-02-10 11:52:00,52.0,22.0,29.53,SSE,167,3.0,9.0,31,0.00,,,0.00,322.000000,,2013-02-10 16:52:00,
2013-02-10 12:02:00,52.0,22.0,29.53,SSE,167,3.0,9.0,31,0.00,,,0.00,322.000000,,2013-02-10 17:02:00,
2013-02-10 12:10:00,52.0,22.0,29.50,SSE,167,5.0,14.0,30,0.00,,,0.00,334.000000,,2013-02-10 17:10:00,
2013-02-10 12:32:00,52.0,22.0,29.50,SSE,167,5.0,14.0,30,0.00,,,0.00,334.000000,,2013-02-10 17:32:00,
2013-02-10 12:42:00,52.0,22.0,29.50,SSE,167,5.0,14.0,30,0.00,,,0.00,334.000000,,2013-02-10 17:42:00,
2013-02-10 12:53:00,52.0,22.0,29.50,SSE,167,5.0,14.0,30,0.00,,,0.00,334.000000,,2013-02-10 17:53:00,
2013-02-10 13:02:00,52.0,22.0,29.50,SSE,167,5.0,14.0,30,0.00,,,0.00,334.000000,,2013-02-10 18:02:00,
2013-02-10 13:10:00,55.0,23.0,29.46,South,170,5.0,14.0,29,0.00,,,0.00,390.000000,,2013-02-10 18:10:00,
2013-02-10 13:42:00,55.0,23.0,29.46,South,170,5.0,14.0,29,0.00,,,0.00,390.000000,,2013-02-10 18:42:00,
2013-02-10 13:52:00,55.0,23.0,29.46,South,170,5.0,14.0,29,0.00,,,0.00,390.000000,,2013-02-10 18:52:00,
2013-02-10 14:02:00,55.0,23.0,29.46,South,170,5.0,14.0,29,0.00,,,0.00,390.000000,,2013-02-10 19:02:00,
2013-02-10 14:10:00,57.0,22.0,29.39,SE,144,4.0,12.0,26,0.00,,,0.00,513.000000,,2013-02-10 19:10:00,
2013-02-10 14:32:00,57.0,22.0,29.39,SE,144,4.0,12.0,26,0.00,,,0.00,513.000000,,2013-02-10 19:32:00,
2013-02-10 14:43:00,57.0,22.0,29.39,SE,144,4.0,12.0,26,0.00,,,0.00,513.000000,,2013-02-10 19:43:00,
2013-02-10 14:52:00,57.0,22.0,29.39,SE,144,4.0,12.0,26,0.00,,,0.00,513.000000,,2013-02-10 19:52:00,
2013-02-10 15:02:00,57.0,22.0,29.39,SE,144,4.0,12.0,26,0.00,,,0.00,513.000000,,2013-02-10 20:02:00,
2013-02-10 15:10:00,56.0,23.0,29.39,South,173,4.0,14.0,27,0.00,,,0.00,481.000000,,2013-02-10 20:10:00,
2013-02-10 15:42:00,56.0,23.0,29.39,South,173,4.0,14.0,27,0.00,,,0.00,481.000000,,2013-02-10 20:42:00,
2013-02-10 15:52:00,56.0,23.0,29.39,South,173,4.0,14.0,27,0.00,,,0.00,481.000000,,2013-02-10 20:52:00,
2013-02-10 16:02:00,56.0,23.0,29.39,South,173,4.0,14.0,27,0.00,,,0.00,481.000000,,2013-02-10 21:02:00,
2013-02-10 16:10:00,56.0,26.0,29.36,SSE,149,4.0,11.0,31,0.00,,,0.00,417.000000,,2013-02-10 21:10:00,
2013-02-10 16:32:00,56.0,26.0,29.36,SSE,149,4.0,11.0,31,0.00,,,0.00,417.000000,,2013-02-10 21:32:00,
2013-02-10 16:42:00,56.0,26.0,29.36,SSE,149,4.0,11.0,31,0.00,,,0.00,417.000000,,2013-02-10 21:42:00,
2013-02-10 16:52:00,56.0,26.0,29.36,SSE,149,4.0,11.0,31,0.00,,,0.00,417.000000,,2013-02-10 21:52:00,
2013-02-10 17:02:00,56.0,26.0,29.36,SSE,149,4.0,11.0,31,0.00,,,0.00,417.000000,,2013-02-10 22:02:00,
2013-02-10 17:10:00,52.0,27.0,29.36,ESE,123,2.0,10.0,37,0.00,,,0.00,181.000000,,2013-02-10 22:10:00,
2013-02-10 17:42:00,52.0,27.0,29.36,ESE,123,2.0,10.0,37,0.00,,,0.00,181.000000,,2013-02-10 22:42:00,
2013-02-10 17:53:00,52.0,27.0,29.36,ESE,123,2.0,10.0,37,0.00,,,0.00,181.000000,,2013-02-10 22:53:00,
2013-02-10 18:02:00,52.0,27.0,29.36,ESE,123,2.0,10.0,37,0.00,,,0.00,181.000000,,2013-02-10 23:02:00,
2013-02-10 18:10:00,52.0,30.0,29.36,NNE,20,1.0,6.0,43,0.00,,,0.00,78.000000,,2013-02-10 23:10:00,
2013-02-10 18:32:00,52.0,30.0,29.36,NNE,20,1.0,6.0,43,0.00,,,0.00,78.000000,,2013-02-10 23:32:00,
2013-02-10 18:42:00,52.0,30.0,29.36,NNE,20,1.0,6.0,43,0.00,,,0.00,78.000000,,2013-02-10 23:42:00,
2013-02-10 18:52:00,52.0,30.0,29.36,NNE,20,1.0,6.0,43,0.00,,,0.00,78.000000,,2013-02-10 23:52:00,
2013-02-10 19:02:00,52.0,30.0,29.36,NNE,20,1.0,6.0,43,0.00,,,0.00,78.000000,,2013-02-11 00:02:00,
2013-02-10 19:10:00,47.0,41.0,29.35,NW,324,3.0,6.0,81,0.01,,,0.01,8.000000,,2013-02-11 00:10:00,
2013-02-10 19:42:00,47.0,41.0,29.35,NW,324,3.0,6.0,81,0.01,,,0.01,8.000000,,2013-02-11 00:42:00,
2013-02-10 19:52:00,47.0,41.0,29.35,NW,324,3.0,6.0,81,0.01,,,0.01,8.000000,,2013-02-11 00:52:00,
2013-02-10 20:01:00,47.0,41.0,29.35,NW,324,3.0,6.0,81,0.01,,,0.01,8.000000,,2013-02-11 01:01:00,
2013-02-10 21:10:00,43.0,41.0,29.40,NNW,334,3.0,10.0,93,-99.99,,,0.16,0.000000,,2013-02-11 02:10:00,
2013-02-10 21:42:00,43.0,41.0,29.40,NNW,334,3.0,10.0,93,-99.99,,,0.16,0.000000,,2013-02-11 02:42:00,
2013-02-10 21:52:00,43.0,41.0,29.40,NNW,334,3.0,10.0,93,-99.99,,,0.16,0.000000,,2013-02-11 02:52:00,
2013-02-10 22:02:00,43.0,41.0,29.40,NNW,334,3.0,10.0,93,-99.99,,,0.16,0.000000,,2013-02-11 03:02:00,
2013-02-10 22:10:00,41.0,40.0,29.38,North,350,1.0,8.0,95,0.05,,,0.21,0.000000,,2013-02-11 03:10:00,
2013-02-10 22:32:00,41.0,40.0,29.38,North,350,1.0,8.0,95,0.05,,,0.21,0.000000,,2013-02-11 03:32:00,
2013-02-10 22:42:00,41.0,40.0,29.38,North,350,1.0,8.0,95,0.05,,,0.21,0.000000,,2013-02-11 03:42:00,
2013-02-10 22:52:00,41.0,40.0,29.38,North,350,1.0,8.0,95,0.05,,,0.21,0.000000,,2013-02-11 03:52:00,
2013-02-10 23:02:00,41.0,40.0,29.38,North,350,1.0,8.0,95,0.05,,,0.21,0.000000,,2013-02-11 04:02:00,
2013-02-10 23:10:00,43.0,42.0,29.33,NE,52,1.0,3.0,96,0.00,,,0.21,0.000000,,2013-02-11 04:10:00,
2013-02-10 23:32:00,43.0,42.0,29.33,NE,52,1.0,3.0,96,0.00,,,0.21,0.000000,,2013-02-11 04:32:00,
2013-02-10 23:42:00,43.0,42.0,29.33,NE,52,1.0,3.0,96,0.00,,,0.21,0.000000,,2013-02-11 04:42:00,
2013-02-10 23:52:00,43.0,42.0,29.33,NE,52,1.0,3.0,96,0.00,,,0.21,0.000000,,2013-02-11 04:52:00,